Terminal Aerodrome Forecast
Issued by NWS Denver/Boulder, CO

Home | Current Version | Previous Version | Text Only | Print | Product List | Glossary On
Versions: 1 2 3 4 5 6 7 8 9 10 11 12 13 14 15 16 17 18 19 20 21 22 23 24 25 26 27 28 29 30 31 32 33 34 35 36 37 38 39 40 41 42 43 44 45 46 47 48 49 50
000
FTUS45 KBOU 011257 AAC
TAFDEN
TAF AMD
KDEN 011257Z 0113/0218 36008KT 4SM -SN SCT004 BKN008 OVC020
      TEMPO 0113/0116 1SM -SN BR BKN004
     FM011800 03012KT P6SM -SHSNRA SCT012 OVC025
      TEMPO 0120/0124 4SM -SHSNRA BKN010
     FM020200 06008KT P6SM VCSH SCT015 BKN030 OVC060
     FM020400 18005KT P6SM SCT030 BKN060
     FM020900 23006KT P6SM SCT060 BKN100
     FM021200 21006KT P6SM SCT100=

USA.gov is the U.S. government's official web portal to all federal, state and local government web resources and services.